Farmington, NM

4:03 AM MST on November 23, 2014 (GMT -0700)
Butler and 23rd Street | Change Station
CLOSE
Current Station
Personal Weather Station
Location: Farmington, NM
Elevation: 5500 ft
Nearby Weather Stations
Active Advisory: Wind Advisory

Elev 5500 ft 36.75 °N, 108.20 °W | Updated 11 seconds ago

Overcast
Overcast
38.0 °F
Feels Like 38 °F
N
3.0
Wind Variable Wind from WSW
Gusts 29.0 mph

Today
High -- | Low -- °F
--% Chance of Precip.
Yesterday
High -- | Low -- °F
Precip. -- in
6:59 AM 4:59 PM
New Moon, 1% visible
Pressure 29.77 in
Visibility 10.0 miles
Clouds Overcast 6000 ft
Windchill 38 °F
Dew Point 32 °F
Humidity 78%
Rainfall 0.00 in
Snow Depth Not available.
UV 0 out of 12
Pollen .30 out of 12
Air Quality Not available.
Flu Activity Not available.
METAR KFMN 231053Z AUTO 32008KT 10SM OVC060 03/M02 A2981 RMK AO2 PK WND 35030/1027 RAE0956 SLP079 P0000 T00331017

More Conditions Fewer Conditions

Pressure 29.77 in
Visibility 10.0 miles
Clouds Overcast 6000 ft
Windchill 38 °F
Dew Point 32 °F
Humidity 78%
Rainfall 0.00 in
Snow Depth Not available.
UV 0 out of 12
Pollen .30 out of 12
Air Quality Not available.
Flu Activity Not available.
METAR KFMN 231053Z AUTO 32008KT 10SM OVC060 03/M02 A2981 RMK AO2 PK WND 35030/1027 RAE0956 SLP079 P0000 T00331017

More Conditions Fewer Conditions

10-Day Weather Forecast

Almanac

Astronomy

Nov. 23, 2014 Rise Set
Actual Time
Civil Twilight
Nautical Twilight
Astronomical Twilight
Moon
Length of Visible Light
Length of Day
Tomorrow will be .
, % of the Moon is Illuminated

Today's Extremes

State Highs State Lows

Community

WunderPhotos

Upload Photos

1,773,033 photos uploaded!

WunderBlogs® & News

Nearby

Air Quality

  Air Quality AQ Index Pollutant
Not available.

Snow Depth

Station Depth Elevation

Earthquake Activity

City Distance Mag. Time & Date
Minimum magnitude displayed is 2.5.

Coastal Water Temperatures

Place Temperature

Nearby Weather Stations